sensor_id;sensor_type;location;lat;lon;timestamp;temperature;humidity
21259;DHT22;10787;53.364;-1.480;2023-02-10T00:02:24;5.60;99.90
21259;DHT22;10787;53.364;-1.480;2023-02-10T00:04:50;5.60;99.90
21259;DHT22;10787;53.364;-1.480;2023-02-10T00:07:19;5.50;99.90
21259;DHT22;10787;53.364;-1.480;2023-02-10T00:09:44;5.50;99.90
21259;DHT22;10787;53.364;-1.480;2023-02-10T00:12:10;5.40;99.90
21259;DHT22;10787;53.364;-1.480;2023-02-10T00:14:37;5.40;99.90
21259;DHT22;10787;53.364;-1.480;2023-02-10T00:17:04;5.40;99.90
21259;DHT22;10787;53.364;-1.480;2023-02-10T00:19:30;5.30;99.90
21259;DHT22;10787;53.364;-1.480;2023-02-10T00:22:00;5.30;99.90
21259;DHT22;10787;53.364;-1.480;2023-02-10T00:24:27;5.20;99.90
21259;DHT22;10787;53.364;-1.480;2023-02-10T00:26:53;5.10;99.90
21259;DHT22;10787;53.364;-1.480;2023-02-10T00:29:19;5.10;99.90
21259;DHT22;10787;53.364;-1.480;2023-02-10T00:31:45;5.00;99.90
21259;DHT22;10787;53.364;-1.480;2023-02-10T00:34:13;5.00;99.90
21259;DHT22;10787;53.364;-1.480;2023-02-10T00:36:40;4.90;99.90
21259;DHT22;10787;53.364;-1.480;2023-02-10T00:39:06;4.80;99.90
21259;DHT22;10787;53.364;-1.480;2023-02-10T00:41:32;4.80;99.90
21259;DHT22;10787;53.364;-1.480;2023-02-10T00:43:57;4.80;99.90
21259;DHT22;10787;53.364;-1.480;2023-02-10T00:46:23;4.70;99.90
21259;DHT22;10787;53.364;-1.480;2023-02-10T00:48:49;4.70;99.90
21259;DHT22;10787;53.364;-1.480;2023-02-10T00:51:16;4.70;99.90
21259;DHT22;10787;53.364;-1.480;2023-02-10T00:53:42;4.60;99.90
21259;DHT22;10787;53.364;-1.480;2023-02-10T00:56:09;4.60;99.90
21259;DHT22;10787;53.364;-1.480;2023-02-10T00:58:35;4.60;99.90
21259;DHT22;10787;53.364;-1.480;2023-02-10T01:01:01;4.50;99.90
21259;DHT22;10787;53.364;-1.480;2023-02-10T01:03:27;4.50;99.90
21259;DHT22;10787;53.364;-1.480;2023-02-10T01:05:53;4.40;99.90
21259;DHT22;10787;53.364;-1.480;2023-02-10T01:08:19;4.40;99.90
21259;DHT22;10787;53.364;-1.480;2023-02-10T01:10:45;4.30;99.90
21259;DHT22;10787;53.364;-1.480;2023-02-10T01:13:13;4.30;99.90
21259;DHT22;10787;53.364;-1.480;2023-02-10T01:15:46;4.20;99.90
21259;DHT22;10787;53.364;-1.480;2023-02-10T01:18:12;4.20;99.90
21259;DHT22;10787;53.364;-1.480;2023-02-10T01:20:39;4.10;99.90
21259;DHT22;10787;53.364;-1.480;2023-02-10T01:23:06;4.10;99.90
21259;DHT22;10787;53.364;-1.480;2023-02-10T01:25:33;4.10;99.90
21259;DHT22;10787;53.364;-1.480;2023-02-10T01:27:59;4.00;99.90
21259;DHT22;10787;53.364;-1.480;2023-02-10T01:30:25;4.00;99.90
21259;DHT22;10787;53.364;-1.480;2023-02-10T01:32:54;3.90;99.90
21259;DHT22;10787;53.364;-1.480;2023-02-10T01:35:20;3.90;99.90
21259;DHT22;10787;53.364;-1.480;2023-02-10T01:37:46;3.90;99.90
21259;DHT22;10787;53.364;-1.480;2023-02-10T01:40:12;3.90;99.90
21259;DHT22;10787;53.364;-1.480;2023-02-10T01:42:38;3.80;99.90
21259;DHT22;10787;53.364;-1.480;2023-02-10T01:45:16;3.80;99.90
21259;DHT22;10787;53.364;-1.480;2023-02-10T01:47:44;3.80;99.90
21259;DHT22;10787;53.364;-1.480;2023-02-10T01:50:12;3.80;99.90
21259;DHT22;10787;53.364;-1.480;2023-02-10T01:52:38;3.80;99.90
21259;DHT22;10787;53.364;-1.480;2023-02-10T01:55:07;3.70;99.90
21259;DHT22;10787;53.364;-1.480;2023-02-10T01:57:35;3.70;99.90
21259;DHT22;10787;53.364;-1.480;2023-02-10T02:00:04;3.70;99.90
21259;DHT22;10787;53.364;-1.480;2023-02-10T02:02:30;3.70;99.90
21259;DHT22;10787;53.364;-1.480;2023-02-10T02:05:02;3.70;99.90
21259;DHT22;10787;53.364;-1.480;2023-02-10T02:07:34;3.60;99.90
21259;DHT22;10787;53.364;-1.480;2023-02-10T02:10:03;3.60;99.90
21259;DHT22;10787;53.364;-1.480;2023-02-10T02:12:57;3.60;99.90
21259;DHT22;10787;53.364;-1.480;2023-02-10T02:15:40;3.50;99.90
21259;DHT22;10787;53.364;-1.480;2023-02-10T02:18:32;3.50;99.90
21259;DHT22;10787;53.364;-1.480;2023-02-10T02:24:01;3.40;99.90
21259;DHT22;10787;53.364;-1.480;2023-02-10T02:26:49;3.40;99.90
21259;DHT22;10787;53.364;-1.480;2023-02-10T02:37:31;3.20;99.90
21259;DHT22;10787;53.364;-1.480;2023-02-10T02:39:58;3.10;99.90
21259;DHT22;10787;53.364;-1.480;2023-02-10T02:42:28;3.10;99.90
21259;DHT22;10787;53.364;-1.480;2023-02-10T02:45:18;3.10;99.90
21259;DHT22;10787;53.364;-1.480;2023-02-10T02:59:05;3.10;99.90
21259;DHT22;10787;53.364;-1.480;2023-02-10T03:01:48;3.10;99.90
21259;DHT22;10787;53.364;-1.480;2023-02-10T03:04:17;3.10;99.90
21259;DHT22;10787;53.364;-1.480;2023-02-10T03:06:43;3.20;99.90
21259;DHT22;10787;53.364;-1.480;2023-02-10T03:09:10;3.30;99.90
21259;DHT22;10787;53.364;-1.480;2023-02-10T03:11:36;3.30;99.90
21259;DHT22;10787;53.364;-1.480;2023-02-10T03:14:02;3.40;99.90
21259;DHT22;10787;53.364;-1.480;2023-02-10T03:16:28;3.40;99.90
21259;DHT22;10787;53.364;-1.480;2023-02-10T03:18:53;3.50;99.90
21259;DHT22;10787;53.364;-1.480;2023-02-10T03:21:19;3.50;99.90
21259;DHT22;10787;53.364;-1.480;2023-02-10T03:23:45;3.50;99.90
21259;DHT22;10787;53.364;-1.480;2023-02-10T03:26:11;3.40;99.90
21259;DHT22;10787;53.364;-1.480;2023-02-10T03:28:37;3.40;99.90
21259;DHT22;10787;53.364;-1.480;2023-02-10T03:31:04;3.40;99.90
21259;DHT22;10787;53.364;-1.480;2023-02-10T03:33:31;3.40;99.90
21259;DHT22;10787;53.364;-1.480;2023-02-10T03:35:56;3.40;99.90
21259;DHT22;10787;53.364;-1.480;2023-02-10T03:38:24;3.40;99.90
21259;DHT22;10787;53.364;-1.480;2023-02-10T03:40:51;3.40;99.90
21259;DHT22;10787;53.364;-1.480;2023-02-10T03:43:18;3.30;99.90
21259;DHT22;10787;53.364;-1.480;2023-02-10T03:45:44;3.40;99.90
21259;DHT22;10787;53.364;-1.480;2023-02-10T03:48:10;3.50;99.90
21259;DHT22;10787;53.364;-1.480;2023-02-10T03:50:36;3.50;99.90
21259;DHT22;10787;53.364;-1.480;2023-02-10T03:53:01;3.50;99.90
21259;DHT22;10787;53.364;-1.480;2023-02-10T03:55:28;3.60;99.90
21259;DHT22;10787;53.364;-1.480;2023-02-10T03:57:54;3.80;99.90
21259;DHT22;10787;53.364;-1.480;2023-02-10T04:00:20;3.80;99.90
21259;DHT22;10787;53.364;-1.480;2023-02-10T04:02:45;4.00;99.90
21259;DHT22;10787;53.364;-1.480;2023-02-10T04:05:11;4.10;99.90
21259;DHT22;10787;53.364;-1.480;2023-02-10T04:07:37;4.20;99.90
21259;DHT22;10787;53.364;-1.480;2023-02-10T04:10:04;4.30;99.90
21259;DHT22;10787;53.364;-1.480;2023-02-10T04:12:30;4.40;99.90
21259;DHT22;10787;53.364;-1.480;2023-02-10T04:14:56;4.40;99.90
21259;DHT22;10787;53.364;-1.480;2023-02-10T04:17:22;4.50;99.90
21259;DHT22;10787;53.364;-1.480;2023-02-10T04:19:48;4.50;99.90
21259;DHT22;10787;53.364;-1.480;2023-02-10T04:22:13;4.50;99.90
21259;DHT22;10787;53.364;-1.480;2023-02-10T04:24:39;4.60;99.90
21259;DHT22;10787;53.364;-1.480;2023-02-10T04:27:05;4.60;99.90
21259;DHT22;10787;53.364;-1.480;2023-02-10T04:29:31;4.60;99.90
21259;DHT22;10787;53.364;-1.480;2023-02-10T04:31:56;4.70;99.90
21259;DHT22;10787;53.364;-1.480;2023-02-10T04:34:22;4.70;99.90
21259;DHT22;10787;53.364;-1.480;2023-02-10T04:36:48;4.60;99.90
21259;DHT22;10787;53.364;-1.480;2023-02-10T04:39:14;4.60;99.90
21259;DHT22;10787;53.364;-1.480;2023-02-10T04:41:39;4.60;99.90
21259;DHT22;10787;53.364;-1.480;2023-02-10T04:44:05;4.50;99.90
21259;DHT22;10787;53.364;-1.480;2023-02-10T04:46:31;4.60;99.90
21259;DHT22;10787;53.364;-1.480;2023-02-10T04:48:57;4.50;99.90
21259;DHT22;10787;53.364;-1.480;2023-02-10T04:51:22;4.50;99.90
21259;DHT22;10787;53.364;-1.480;2023-02-10T04:53:48;4.50;99.90
21259;DHT22;10787;53.364;-1.480;2023-02-10T04:56:14;4.50;99.90
21259;DHT22;10787;53.364;-1.480;2023-02-10T04:58:40;4.40;99.90
21259;DHT22;10787;53.364;-1.480;2023-02-10T05:01:06;4.30;99.90
21259;DHT22;10787;53.364;-1.480;2023-02-10T05:03:32;4.30;99.90
21259;DHT22;10787;53.364;-1.480;2023-02-10T05:05:58;4.20;99.90
21259;DHT22;10787;53.364;-1.480;2023-02-10T05:08:24;4.20;99.90
21259;DHT22;10787;53.364;-1.480;2023-02-10T05:10:51;4.10;99.90
21259;DHT22;10787;53.364;-1.480;2023-02-10T05:13:17;4.10;99.90
21259;DHT22;10787;53.364;-1.480;2023-02-10T05:15:43;4.00;99.90
21259;DHT22;10787;53.364;-1.480;2023-02-10T05:18:09;4.00;99.90
21259;DHT22;10787;53.364;-1.480;2023-02-10T05:20:35;4.00;99.90
21259;DHT22;10787;53.364;-1.480;2023-02-10T05:23:01;3.90;99.90
21259;DHT22;10787;53.364;-1.480;2023-02-10T05:25:27;3.90;99.90
21259;DHT22;10787;53.364;-1.480;2023-02-10T05:27:53;3.90;99.90
21259;DHT22;10787;53.364;-1.480;2023-02-10T05:30:19;3.90;99.90
21259;DHT22;10787;53.364;-1.480;2023-02-10T05:32:44;3.80;99.90
21259;DHT22;10787;53.364;-1.480;2023-02-10T05:35:10;3.90;99.90
21259;DHT22;10787;53.364;-1.480;2023-02-10T05:37:36;3.80;99.90
21259;DHT22;10787;53.364;-1.480;2023-02-10T05:40:03;3.80;99.90
21259;DHT22;10787;53.364;-1.480;2023-02-10T05:42:29;3.70;99.90
21259;DHT22;10787;53.364;-1.480;2023-02-10T05:44:54;3.70;99.90
21259;DHT22;10787;53.364;-1.480;2023-02-10T05:47:20;3.70;99.90
21259;DHT22;10787;53.364;-1.480;2023-02-10T05:49:46;3.60;99.90
21259;DHT22;10787;53.364;-1.480;2023-02-10T05:52:12;3.60;99.90
21259;DHT22;10787;53.364;-1.480;2023-02-10T05:54:37;3.60;99.90
21259;DHT22;10787;53.364;-1.480;2023-02-10T05:57:06;3.50;99.90
21259;DHT22;10787;53.364;-1.480;2023-02-10T05:59:32;3.50;99.90
21259;DHT22;10787;53.364;-1.480;2023-02-10T06:01:58;3.50;99.90
21259;DHT22;10787;53.364;-1.480;2023-02-10T06:04:24;3.50;99.90
21259;DHT22;10787;53.364;-1.480;2023-02-10T06:06:50;3.50;99.90
21259;DHT22;10787;53.364;-1.480;2023-02-10T06:09:16;3.50;99.90
21259;DHT22;10787;53.364;-1.480;2023-02-10T06:11:41;3.50;99.90
21259;DHT22;10787;53.364;-1.480;2023-02-10T06:14:07;3.50;99.90
21259;DHT22;10787;53.364;-1.480;2023-02-10T06:16:33;3.50;99.90
21259;DHT22;10787;53.364;-1.480;2023-02-10T06:18:59;3.50;99.90
21259;DHT22;10787;53.364;-1.480;2023-02-10T06:21:25;3.50;99.90
21259;DHT22;10787;53.364;-1.480;2023-02-10T06:23:51;3.50;99.90
21259;DHT22;10787;53.364;-1.480;2023-02-10T06:26:18;3.60;99.90
21259;DHT22;10787;53.364;-1.480;2023-02-10T06:28:44;3.60;99.90
21259;DHT22;10787;53.364;-1.480;2023-02-10T06:31:09;3.60;99.90
21259;DHT22;10787;53.364;-1.480;2023-02-10T06:33:36;3.60;99.90
21259;DHT22;10787;53.364;-1.480;2023-02-10T06:36:02;3.60;99.90
21259;DHT22;10787;53.364;-1.480;2023-02-10T06:38:32;3.70;99.90
21259;DHT22;10787;53.364;-1.480;2023-02-10T06:40:58;4.00;99.90
21259;DHT22;10787;53.364;-1.480;2023-02-10T06:43:24;4.20;99.90
21259;DHT22;10787;53.364;-1.480;2023-02-10T06:45:49;4.40;99.90
21259;DHT22;10787;53.364;-1.480;2023-02-10T06:48:15;4.50;99.90
21259;DHT22;10787;53.364;-1.480;2023-02-10T06:50:41;4.40;99.90
21259;DHT22;10787;53.364;-1.480;2023-02-10T06:53:07;4.40;99.90
21259;DHT22;10787;53.364;-1.480;2023-02-10T06:55:33;4.40;99.90
21259;DHT22;10787;53.364;-1.480;2023-02-10T06:57:59;4.30;99.90
21259;DHT22;10787;53.364;-1.480;2023-02-10T07:00:25;4.30;99.90
21259;DHT22;10787;53.364;-1.480;2023-02-10T07:02:51;4.20;99.90
21259;DHT22;10787;53.364;-1.480;2023-02-10T07:05:17;4.20;99.90
21259;DHT22;10787;53.364;-1.480;2023-02-10T07:07:43;4.10;99.90
21259;DHT22;10787;53.364;-1.480;2023-02-10T07:10:09;4.10;99.90
21259;DHT22;10787;53.364;-1.480;2023-02-10T07:12:35;4.10;99.90
21259;DHT22;10787;53.364;-1.480;2023-02-10T07:15:01;4.10;99.90
21259;DHT22;10787;53.364;-1.480;2023-02-10T07:17:27;4.10;99.90
21259;DHT22;10787;53.364;-1.480;2023-02-10T07:19:52;4.10;99.90
21259;DHT22;10787;53.364;-1.480;2023-02-10T07:22:18;4.10;99.90
21259;DHT22;10787;53.364;-1.480;2023-02-10T07:24:46;4.10;99.90
21259;DHT22;10787;53.364;-1.480;2023-02-10T07:27:13;4.10;99.90
21259;DHT22;10787;53.364;-1.480;2023-02-10T07:29:38;4.20;99.90
21259;DHT22;10787;53.364;-1.480;2023-02-10T07:32:04;4.40;99.90
21259;DHT22;10787;53.364;-1.480;2023-02-10T07:34:30;4.40;99.90
21259;DHT22;10787;53.364;-1.480;2023-02-10T07:36:59;4.50;99.90
21259;DHT22;10787;53.364;-1.480;2023-02-10T07:39:26;4.50;99.90
21259;DHT22;10787;53.364;-1.480;2023-02-10T07:41:52;4.50;99.90
21259;DHT22;10787;53.364;-1.480;2023-02-10T07:44:18;4.50;99.90
21259;DHT22;10787;53.364;-1.480;2023-02-10T07:46:47;4.50;99.90
21259;DHT22;10787;53.364;-1.480;2023-02-10T07:49:13;4.50;99.90
21259;DHT22;10787;53.364;-1.480;2023-02-10T07:51:39;4.50;99.90
21259;DHT22;10787;53.364;-1.480;2023-02-10T07:54:05;4.50;99.90
21259;DHT22;10787;53.364;-1.480;2023-02-10T07:56:31;4.50;99.90
21259;DHT22;10787;53.364;-1.480;2023-02-10T07:58:57;4.50;99.90
21259;DHT22;10787;53.364;-1.480;2023-02-10T08:01:24;4.50;99.90
21259;DHT22;10787;53.364;-1.480;2023-02-10T08:03:50;4.50;99.90
21259;DHT22;10787;53.364;-1.480;2023-02-10T08:06:23;4.50;99.90
21259;DHT22;10787;53.364;-1.480;2023-02-10T08:08:49;4.50;99.90
21259;DHT22;10787;53.364;-1.480;2023-02-10T08:11:15;4.50;99.90
21259;DHT22;10787;53.364;-1.480;2023-02-10T08:13:41;4.50;99.90
21259;DHT22;10787;53.364;-1.480;2023-02-10T08:16:07;4.50;99.90
21259;DHT22;10787;53.364;-1.480;2023-02-10T08:18:39;4.60;99.90
21259;DHT22;10787;53.364;-1.480;2023-02-10T08:21:05;4.70;99.90
21259;DHT22;10787;53.364;-1.480;2023-02-10T08:23:31;4.70;99.90
21259;DHT22;10787;53.364;-1.480;2023-02-10T08:25:57;4.70;99.90
21259;DHT22;10787;53.364;-1.480;2023-02-10T08:28:23;4.80;99.90
21259;DHT22;10787;53.364;-1.480;2023-02-10T08:30:49;4.80;99.90
21259;DHT22;10787;53.364;-1.480;2023-02-10T08:33:15;4.80;99.90
21259;DHT22;10787;53.364;-1.480;2023-02-10T08:35:41;4.80;99.90
21259;DHT22;10787;53.364;-1.480;2023-02-10T08:38:07;4.80;99.90
21259;DHT22;10787;53.364;-1.480;2023-02-10T08:40:36;4.80;99.90
21259;DHT22;10787;53.364;-1.480;2023-02-10T08:43:02;4.80;99.90
21259;DHT22;10787;53.364;-1.480;2023-02-10T08:45:28;4.90;99.90
21259;DHT22;10787;53.364;-1.480;2023-02-10T08:47:54;4.90;99.90
21259;DHT22;10787;53.364;-1.480;2023-02-10T08:50:20;4.90;99.90
21259;DHT22;10787;53.364;-1.480;2023-02-10T08:52:45;4.90;99.90
21259;DHT22;10787;53.364;-1.480;2023-02-10T08:55:11;5.00;99.90
21259;DHT22;10787;53.364;-1.480;2023-02-10T08:57:37;5.00;99.90
21259;DHT22;10787;53.364;-1.480;2023-02-10T09:00:05;5.10;99.90
21259;DHT22;10787;53.364;-1.480;2023-02-10T09:02:31;5.20;99.90
21259;DHT22;10787;53.364;-1.480;2023-02-10T09:04:57;5.20;99.90
21259;DHT22;10787;53.364;-1.480;2023-02-10T09:07:23;5.20;99.90
21259;DHT22;10787;53.364;-1.480;2023-02-10T09:09:48;5.20;99.90
21259;DHT22;10787;53.364;-1.480;2023-02-10T09:12:14;5.30;99.90
21259;DHT22;10787;53.364;-1.480;2023-02-10T09:14:40;5.30;99.90
21259;DHT22;10787;53.364;-1.480;2023-02-10T09:17:07;5.40;99.90
21259;DHT22;10787;53.364;-1.480;2023-02-10T09:19:37;5.50;99.90
21259;DHT22;10787;53.364;-1.480;2023-02-10T09:22:06;5.70;99.90
21259;DHT22;10787;53.364;-1.480;2023-02-10T09:24:32;5.80;99.90
21259;DHT22;10787;53.364;-1.480;2023-02-10T09:26:59;6.00;99.90
21259;DHT22;10787;53.364;-1.480;2023-02-10T09:29:30;6.10;99.90
21259;DHT22;10787;53.364;-1.480;2023-02-10T09:31:56;6.20;99.90
21259;DHT22;10787;53.364;-1.480;2023-02-10T09:34:22;6.20;99.90
21259;DHT22;10787;53.364;-1.480;2023-02-10T09:36:48;6.30;99.90
21259;DHT22;10787;53.364;-1.480;2023-02-10T09:39:14;6.40;99.90
21259;DHT22;10787;53.364;-1.480;2023-02-10T09:41:47;6.40;99.90
21259;DHT22;10787;53.364;-1.480;2023-02-10T09:44:16;6.50;99.90
21259;DHT22;10787;53.364;-1.480;2023-02-10T09:49:53;6.60;99.90
21259;DHT22;10787;53.364;-1.480;2023-02-10T09:55:43;6.70;99.90
21259;DHT22;10787;53.364;-1.480;2023-02-10T10:00:43;6.90;99.90
21259;DHT22;10787;53.364;-1.480;2023-02-10T10:03:38;7.00;99.90
21259;DHT22;10787;53.364;-1.480;2023-02-10T10:06:20;7.00;99.90
21259;DHT22;10787;53.364;-1.480;2023-02-10T10:14:08;7.30;99.90
21259;DHT22;10787;53.364;-1.480;2023-02-10T10:16:48;7.30;99.90
21259;DHT22;10787;53.364;-1.480;2023-02-10T10:29:54;8.00;99.90
21259;DHT22;10787;53.364;-1.480;2023-02-10T10:32:43;8.10;99.90
21259;DHT22;10787;53.364;-1.480;2023-02-10T10:35:38;8.30;99.90
21259;DHT22;10787;53.364;-1.480;2023-02-10T10:38:24;8.50;99.90
21259;DHT22;10787;53.364;-1.480;2023-02-10T10:40:56;8.60;99.90
21259;DHT22;10787;53.364;-1.480;2023-02-10T10:43:30;8.70;99.90
21259;DHT22;10787;53.364;-1.480;2023-02-10T10:46:05;8.90;99.90
21259;DHT22;10787;53.364;-1.480;2023-02-10T10:48:32;9.00;99.90
21259;DHT22;10787;53.364;-1.480;2023-02-10T10:51:02;9.20;99.90
21259;DHT22;10787;53.364;-1.480;2023-02-10T10:53:42;9.40;99.90
21259;DHT22;10787;53.364;-1.480;2023-02-10T10:56:29;9.50;99.90
21259;DHT22;10787;53.364;-1.480;2023-02-10T10:58:58;9.60;99.90
21259;DHT22;10787;53.364;-1.480;2023-02-10T11:01:34;9.80;99.90
21259;DHT22;10787;53.364;-1.480;2023-02-10T11:04:26;9.80;99.90
21259;DHT22;10787;53.364;-1.480;2023-02-10T11:06:58;9.80;99.90
21259;DHT22;10787;53.364;-1.480;2023-02-10T11:09:33;9.80;99.90
21259;DHT22;10787;53.364;-1.480;2023-02-10T11:12:16;9.80;99.90
21259;DHT22;10787;53.364;-1.480;2023-02-10T11:14:46;9.90;99.90
21259;DHT22;10787;53.364;-1.480;2023-02-10T11:20:03;10.00;99.90
21259;DHT22;10787;53.364;-1.480;2023-02-10T11:22:29;10.20;99.90
21259;DHT22;10787;53.364;-1.480;2023-02-10T11:25:01;10.40;99.90
21259;DHT22;10787;53.364;-1.480;2023-02-10T11:27:27;10.40;99.90
21259;DHT22;10787;53.364;-1.480;2023-02-10T11:29:56;10.60;99.90
21259;DHT22;10787;53.364;-1.480;2023-02-10T11:32:34;10.70;99.90
21259;DHT22;10787;53.364;-1.480;2023-02-10T11:35:02;10.80;99.90
21259;DHT22;10787;53.364;-1.480;2023-02-10T11:37:37;10.80;99.90
21259;DHT22;10787;53.364;-1.480;2023-02-10T11:40:17;10.90;99.90
21259;DHT22;10787;53.364;-1.480;2023-02-10T11:42:49;10.90;99.90
21259;DHT22;10787;53.364;-1.480;2023-02-10T11:45:19;10.90;99.90
21259;DHT22;10787;53.364;-1.480;2023-02-10T11:47:46;10.80;99.90
21259;DHT22;10787;53.364;-1.480;2023-02-10T11:50:24;10.70;99.90
21259;DHT22;10787;53.364;-1.480;2023-02-10T11:52:51;10.60;99.90
21259;DHT22;10787;53.364;-1.480;2023-02-10T11:55:17;10.60;99.90
21259;DHT22;10787;53.364;-1.480;2023-02-10T12:01:17;10.40;99.90
21259;DHT22;10787;53.364;-1.480;2023-02-10T12:06:39;10.20;99.90
21259;DHT22;10787;53.364;-1.480;2023-02-10T12:14:37;10.10;99.90
21259;DHT22;10787;53.364;-1.480;2023-02-10T12:25:05;10.00;99.90
21259;DHT22;10787;53.364;-1.480;2023-02-10T12:27:47;10.00;99.90
21259;DHT22;10787;53.364;-1.480;2023-02-10T12:30:54;9.80;99.90
21259;DHT22;10787;53.364;-1.480;2023-02-10T12:33:50;9.70;99.90
21259;DHT22;10787;53.364;-1.480;2023-02-10T12:39:19;9.50;99.90
21259;DHT22;10787;53.364;-1.480;2023-02-10T12:42:44;9.40;99.90
21259;DHT22;10787;53.364;-1.480;2023-02-10T12:53:50;9.30;99.90
21259;DHT22;10787;53.364;-1.480;2023-02-10T12:59:02;9.10;99.90
21259;DHT22;10787;53.364;-1.480;2023-02-10T13:01:40;9.10;99.90
21259;DHT22;10787;53.364;-1.480;2023-02-10T13:04:24;9.00;99.90
21259;DHT22;10787;53.364;-1.480;2023-02-10T13:07:20;9.00;99.90
21259;DHT22;10787;53.364;-1.480;2023-02-10T13:12:47;9.00;99.90
21259;DHT22;10787;53.364;-1.480;2023-02-10T13:15:26;9.00;99.90
21259;DHT22;10787;53.364;-1.480;2023-02-10T13:17:53;9.00;99.90
21259;DHT22;10787;53.364;-1.480;2023-02-10T13:35:43;8.80;99.90
21259;DHT22;10787;53.364;-1.480;2023-02-10T13:38:15;8.80;99.90
21259;DHT22;10787;53.364;-1.480;2023-02-10T13:40:51;8.80;99.90
21259;DHT22;10787;53.364;-1.480;2023-02-10T13:43:32;8.80;99.90
21259;DHT22;10787;53.364;-1.480;2023-02-10T13:46:00;8.80;99.90
21259;DHT22;10787;53.364;-1.480;2023-02-10T13:48:29;8.80;99.90
21259;DHT22;10787;53.364;-1.480;2023-02-10T13:51:05;8.90;99.90
21259;DHT22;10787;53.364;-1.480;2023-02-10T13:58:53;8.90;99.90
21259;DHT22;10787;53.364;-1.480;2023-02-10T14:01:38;8.90;99.90
21259;DHT22;10787;53.364;-1.480;2023-02-10T14:04:29;8.90;99.90
21259;DHT22;10787;53.364;-1.480;2023-02-10T14:06:53;8.80;99.90
21259;DHT22;10787;53.364;-1.480;2023-02-10T14:11:56;8.70;99.90
21259;DHT22;10787;53.364;-1.480;2023-02-10T14:14:35;8.60;99.90
21259;DHT22;10787;53.364;-1.480;2023-02-10T14:17:22;8.50;99.90
21259;DHT22;10787;53.364;-1.480;2023-02-10T14:19:54;8.30;99.90
21259;DHT22;10787;53.364;-1.480;2023-02-10T14:24:59;8.10;99.90
21259;DHT22;10787;53.364;-1.480;2023-02-10T14:27:26;8.10;99.90
21259;DHT22;10787;53.364;-1.480;2023-02-10T14:29:56;8.00;99.90
21259;DHT22;10787;53.364;-1.480;2023-02-10T14:32:24;7.90;99.90
21259;DHT22;10787;53.364;-1.480;2023-02-10T14:34:58;7.90;99.90
21259;DHT22;10787;53.364;-1.480;2023-02-10T14:37:24;7.90;99.90
21259;DHT22;10787;53.364;-1.480;2023-02-10T14:39:52;7.80;99.90
21259;DHT22;10787;53.364;-1.480;2023-02-10T14:42:19;7.80;99.90
21259;DHT22;10787;53.364;-1.480;2023-02-10T14:44:48;7.80;99.90
21259;DHT22;10787;53.364;-1.480;2023-02-10T14:47:20;7.80;99.90
21259;DHT22;10787;53.364;-1.480;2023-02-10T14:49:52;7.80;99.90
21259;DHT22;10787;53.364;-1.480;2023-02-10T14:52:33;7.90;99.90
21259;DHT22;10787;53.364;-1.480;2023-02-10T14:54:59;7.90;99.90
21259;DHT22;10787;53.364;-1.480;2023-02-10T14:57:26;8.00;99.90
21259;DHT22;10787;53.364;-1.480;2023-02-10T14:59:57;8.00;99.90
21259;DHT22;10787;53.364;-1.480;2023-02-10T15:02:26;8.10;99.90
21259;DHT22;10787;53.364;-1.480;2023-02-10T15:04:55;8.10;99.90
21259;DHT22;10787;53.364;-1.480;2023-02-10T15:07:34;8.20;99.90
21259;DHT22;10787;53.364;-1.480;2023-02-10T15:10:32;8.20;99.90
21259;DHT22;10787;53.364;-1.480;2023-02-10T15:12:59;8.30;99.90
21259;DHT22;10787;53.364;-1.480;2023-02-10T15:15:36;8.30;99.90
21259;DHT22;10787;53.364;-1.480;2023-02-10T15:18:12;8.40;99.90
21259;DHT22;10787;53.364;-1.480;2023-02-10T15:20:40;8.40;99.90
21259;DHT22;10787;53.364;-1.480;2023-02-10T15:23:17;8.50;99.90
21259;DHT22;10787;53.364;-1.480;2023-02-10T15:25:43;8.60;99.90
21259;DHT22;10787;53.364;-1.480;2023-02-10T15:31:18;8.70;99.90
21259;DHT22;10787;53.364;-1.480;2023-02-10T15:33:55;8.70;99.90
21259;DHT22;10787;53.364;-1.480;2023-02-10T15:36:34;8.80;99.90
21259;DHT22;10787;53.364;-1.480;2023-02-10T15:39:13;8.80;99.90
21259;DHT22;10787;53.364;-1.480;2023-02-10T15:41:42;8.90;99.90
21259;DHT22;10787;53.364;-1.480;2023-02-10T15:44:29;8.90;99.90
21259;DHT22;10787;53.364;-1.480;2023-02-10T15:49:53;8.90;99.90
21259;DHT22;10787;53.364;-1.480;2023-02-10T15:54:48;8.90;99.90
21259;DHT22;10787;53.364;-1.480;2023-02-10T15:57:32;9.00;99.90
21259;DHT22;10787;53.364;-1.480;2023-02-10T15:59:58;9.10;99.90
21259;DHT22;10787;53.364;-1.480;2023-02-10T16:02:24;9.10;99.90
21259;DHT22;10787;53.364;-1.480;2023-02-10T16:04:51;9.10;99.90
21259;DHT22;10787;53.364;-1.480;2023-02-10T16:07:22;9.20;99.90
21259;DHT22;10787;53.364;-1.480;2023-02-10T16:09:51;9.20;99.90
21259;DHT22;10787;53.364;-1.480;2023-02-10T16:12:17;9.20;99.90
21259;DHT22;10787;53.364;-1.480;2023-02-10T16:14:43;9.30;99.90
21259;DHT22;10787;53.364;-1.480;2023-02-10T16:17:10;9.40;99.90
21259;DHT22;10787;53.364;-1.480;2023-02-10T16:19:37;9.40;99.90
21259;DHT22;10787;53.364;-1.480;2023-02-10T16:22:03;9.50;99.90
21259;DHT22;10787;53.364;-1.480;2023-02-10T16:24:30;9.50;99.90
21259;DHT22;10787;53.364;-1.480;2023-02-10T16:26:57;9.40;99.90
21259;DHT22;10787;53.364;-1.480;2023-02-10T16:29:26;9.40;99.90
21259;DHT22;10787;53.364;-1.480;2023-02-10T16:31:52;9.40;99.90
21259;DHT22;10787;53.364;-1.480;2023-02-10T16:34:18;9.50;99.90
21259;DHT22;10787;53.364;-1.480;2023-02-10T16:36:44;9.60;99.90
21259;DHT22;10787;53.364;-1.480;2023-02-10T16:39:16;9.60;99.90
21259;DHT22;10787;53.364;-1.480;2023-02-10T16:41:43;9.60;99.90
21259;DHT22;10787;53.364;-1.480;2023-02-10T16:44:09;9.60;99.90
21259;DHT22;10787;53.364;-1.480;2023-02-10T16:46:35;9.70;99.90
21259;DHT22;10787;53.364;-1.480;2023-02-10T16:49:00;9.70;99.90
21259;DHT22;10787;53.364;-1.480;2023-02-10T16:51:26;9.80;99.90
21259;DHT22;10787;53.364;-1.480;2023-02-10T16:53:53;9.80;99.90
21259;DHT22;10787;53.364;-1.480;2023-02-10T16:56:21;9.80;99.90
21259;DHT22;10787;53.364;-1.480;2023-02-10T16:58:47;9.90;99.90
21259;DHT22;10787;53.364;-1.480;2023-02-10T17:01:13;9.90;99.90
21259;DHT22;10787;53.364;-1.480;2023-02-10T17:03:39;10.00;99.90
21259;DHT22;10787;53.364;-1.480;2023-02-10T17:06:05;10.00;99.90
21259;DHT22;10787;53.364;-1.480;2023-02-10T17:08:31;10.00;99.90
21259;DHT22;10787;53.364;-1.480;2023-02-10T17:10:57;10.00;99.90
21259;DHT22;10787;53.364;-1.480;2023-02-10T17:13:23;10.00;99.90
21259;DHT22;10787;53.364;-1.480;2023-02-10T17:15:49;10.00;99.90
21259;DHT22;10787;53.364;-1.480;2023-02-10T17:18:16;10.00;99.90
21259;DHT22;10787;53.364;-1.480;2023-02-10T17:20:42;10.10;99.90
21259;DHT22;10787;53.364;-1.480;2023-02-10T17:23:07;10.00;99.90
21259;DHT22;10787;53.364;-1.480;2023-02-10T17:25:33;10.00;99.90
21259;DHT22;10787;53.364;-1.480;2023-02-10T17:28:00;9.90;99.90
21259;DHT22;10787;53.364;-1.480;2023-02-10T17:30:26;9.90;99.90
21259;DHT22;10787;53.364;-1.480;2023-02-10T17:32:53;9.90;99.90
21259;DHT22;10787;53.364;-1.480;2023-02-10T17:35:21;9.90;99.90
21259;DHT22;10787;53.364;-1.480;2023-02-10T17:37:47;9.90;99.90
21259;DHT22;10787;53.364;-1.480;2023-02-10T17:40:16;9.80;99.90
21259;DHT22;10787;53.364;-1.480;2023-02-10T17:42:49;9.80;99.90
21259;DHT22;10787;53.364;-1.480;2023-02-10T17:45:15;9.80;99.90